createdAt,value
2022-10-17T00:02:24.819Z,97075.06
2022-10-17T00:04:51.319Z,97071.75
2022-10-17T00:07:17.812Z,97071.91
2022-10-17T00:09:44.782Z,97079.72
2022-10-17T00:12:11.094Z,97081.44
2022-10-17T00:14:37.456Z,97088.88
2022-10-17T00:17:03.749Z,97088.06
2022-10-17T00:19:30.067Z,97090.34
2022-10-17T00:21:56.544Z,97089.34
2022-10-17T00:24:22.855Z,97088.34
2022-10-17T00:26:49.151Z,97090.53
2022-10-17T00:29:15.433Z,97089.81
2022-10-17T00:31:41.906Z,97092.31
2022-10-17T00:34:08.202Z,97093.59
2022-10-17T00:36:34.863Z,97088.66
2022-10-17T00:39:01.139Z,97086.00
2022-10-17T00:41:31.435Z,97085.19
2022-10-17T00:44:28.501Z,97086.66
2022-10-17T00:46:55.855Z,97085.28
2022-10-17T00:49:25.008Z,97090.72
2022-10-17T00:51:59.092Z,97082.63
2022-10-17T00:54:30.519Z,97095.34
2022-10-17T00:56:57.753Z,97086.13
2022-10-17T00:59:25.051Z,97078.72
2022-10-17T01:01:59.915Z,97076.72
2022-10-17T01:04:26.313Z,97086.91
2022-10-17T01:06:52.626Z,97089.34
2022-10-17T01:09:19.046Z,97078.44
2022-10-17T01:11:55.507Z,97077.63
2022-10-17T01:14:40.539Z,97077.91
2022-10-17T01:17:16.978Z,97079.78
2022-10-17T01:20:14.160Z,97080.44
2022-10-17T01:22:53.168Z,97083.13
2022-10-17T01:25:37.927Z,97089.72
2022-10-17T01:28:52.645Z,97085.22
2022-10-17T01:31:26.098Z,97086.66
2022-10-17T01:34:04.841Z,97089.84
2022-10-17T01:36:40.400Z,97085.22
2022-10-17T01:39:41.619Z,97086.06
2022-10-17T01:42:24.318Z,97088.25
2022-10-17T01:45:10.252Z,97086.28
2022-10-17T01:47:37.846Z,97086.66
2022-10-17T01:50:28.425Z,97089.56
2022-10-17T01:53:19.127Z,97094.31
2022-10-17T01:55:48.846Z,97091.53
2022-10-17T01:58:32.051Z,97092.28
2022-10-17T02:01:01.937Z,97085.41
2022-10-17T02:03:28.793Z,97091.53
2022-10-17T02:05:55.153Z,97087.06
2022-10-17T02:08:44.847Z,97083.75
2022-10-17T02:11:16.537Z,97081.09
2022-10-17T02:14:08.737Z,97072.66
2022-10-17T02:17:09.041Z,97066.00
2022-10-17T02:19:50.257Z,97073.31
2022-10-17T02:22:22.584Z,97070.56
2022-10-17T02:24:52.524Z,97063.63
2022-10-17T02:27:49.640Z,97070.22
2022-10-17T02:30:29.353Z,97067.19
2022-10-17T02:33:01.797Z,97070.22
2022-10-17T02:35:32.717Z,97079.13
2022-10-17T02:38:00.655Z,97077.56
2022-10-17T02:40:29.948Z,97071.59
2022-10-17T02:42:58.756Z,97077.94
2022-10-17T02:45:27.715Z,97084.34
2022-10-17T02:48:04.353Z,97087.84
2022-10-17T02:50:56.917Z,97085.78
2022-10-17T02:53:55.596Z,97086.47
2022-10-17T02:56:22.183Z,97080.59
2022-10-17T02:58:56.353Z,97078.84
2022-10-17T03:01:23.008Z,97076.00
2022-10-17T03:03:49.386Z,97070.00
2022-10-17T03:06:15.988Z,97081.09
2022-10-17T03:08:42.333Z,97080.47
2022-10-17T03:11:08.763Z,97076.88
2022-10-17T03:13:37.547Z,97083.34
2022-10-17T03:16:06.400Z,97084.75
2022-10-17T03:18:32.720Z,97085.06
2022-10-17T03:20:59.196Z,97085.59
2022-10-17T03:23:25.479Z,97087.81
2022-10-17T03:25:51.785Z,97088.06
2022-10-17T03:28:18.083Z,97098.50
2022-10-17T03:30:44.384Z,97089.22
2022-10-17T03:33:10.683Z,97097.41
2022-10-17T03:35:39.877Z,97101.13
2022-10-17T03:38:06.200Z,97102.03
2022-10-17T03:40:32.483Z,97105.88
2022-10-17T03:42:58.874Z,97102.13
2022-10-17T03:45:25.241Z,97105.88
2022-10-17T03:47:51.526Z,97109.59
2022-10-17T03:50:18.022Z,97108.91
2022-10-17T03:52:48.344Z,97114.31
2022-10-17T03:55:15.097Z,97118.91
2022-10-17T03:57:43.465Z,97121.53
2022-10-17T04:00:12.304Z,97120.81
2022-10-17T04:02:38.591Z,97124.00
2022-10-17T04:05:05.552Z,97129.53
2022-10-17T04:07:31.890Z,97131.53
2022-10-17T04:09:58.178Z,97139.25
2022-10-17T04:12:24.514Z,97148.88
2022-10-17T04:14:50.797Z,97156.41
2022-10-17T04:17:17.281Z,97162.53
2022-10-17T04:19:43.571Z,97163.94
2022-10-17T04:22:09.857Z,97177.50
2022-10-17T04:24:36.153Z,97170.31
2022-10-17T04:27:02.492Z,97175.28
2022-10-17T04:29:28.801Z,97170.16
2022-10-17T04:31:55.888Z,97174.31
2022-10-17T04:34:22.187Z,97175.84
2022-10-17T04:36:48.579Z,97171.97
2022-10-17T04:39:14.951Z,97168.06
2022-10-17T04:41:41.597Z,97171.69
2022-10-17T04:44:08.030Z,97173.22
2022-10-17T04:46:34.847Z,97177.50
2022-10-17T04:49:01.343Z,97173.75
2022-10-17T04:51:27.709Z,97183.03
2022-10-17T04:53:54.640Z,97172.81
2022-10-17T04:56:23.330Z,97182.41
2022-10-17T04:58:50.355Z,97181.78
2022-10-17T05:01:19.464Z,97178.69
2022-10-17T05:03:46.446Z,97171.78
2022-10-17T05:06:21.474Z,97181.28
2022-10-17T05:08:48.167Z,97183.03
2022-10-17T05:11:21.956Z,97181.06
2022-10-17T05:13:53.365Z,97184.72
2022-10-17T05:16:20.032Z,97189.16
2022-10-17T05:18:52.936Z,97186.38
2022-10-17T05:21:20.419Z,97194.03
2022-10-17T05:23:46.970Z,97196.53
2022-10-17T05:26:13.699Z,97191.41
2022-10-17T05:28:40.458Z,97196.41
2022-10-17T05:31:08.883Z,97186.41
2022-10-17T05:33:36.361Z,97190.03
2022-10-17T05:36:03.545Z,97201.94
2022-10-17T05:38:29.897Z,97195.84
2022-10-17T05:41:04.437Z,97204.47
2022-10-17T05:43:31.862Z,97200.97
2022-10-17T05:45:58.441Z,97208.34
2022-10-17T05:48:25.263Z,97202.94
2022-10-17T05:51:01.326Z,97210.56
2022-10-17T05:53:31.007Z,97214.44
2022-10-17T05:55:59.180Z,97220.81
2022-10-17T05:58:45.512Z,97225.53
2022-10-17T06:01:12.993Z,97225.81
2022-10-17T06:03:39.651Z,97228.03
2022-10-17T06:06:08.069Z,97229.41
2022-10-17T06:08:34.421Z,97234.69
2022-10-17T06:11:01.681Z,97234.72
2022-10-17T06:13:29.560Z,97236.94
2022-10-17T06:15:55.923Z,97252.31
2022-10-17T06:18:22.434Z,97244.28
2022-10-17T06:20:48.843Z,97248.84
2022-10-17T06:23:15.541Z,97253.84
2022-10-17T06:25:41.937Z,97257.19
2022-10-17T06:28:08.267Z,97264.97
2022-10-17T06:30:34.556Z,97255.22
2022-10-17T06:33:01.327Z,97264.94
2022-10-17T06:35:27.618Z,97260.22
2022-10-17T06:37:53.904Z,97264.53
2022-10-17T06:40:20.186Z,97273.13
2022-10-17T06:42:46.500Z,97271.91
2022-10-17T06:45:12.839Z,97278.84
2022-10-17T06:47:39.332Z,97283.28
2022-10-17T06:50:06.043Z,97283.28
2022-10-17T06:52:32.529Z,97287.16
2022-10-17T06:54:58.859Z,97292.84
2022-10-17T06:57:25.201Z,97294.38
2022-10-17T06:59:51.498Z,97296.31
2022-10-17T07:02:17.786Z,97301.63
2022-10-17T07:04:46.919Z,97298.66
2022-10-17T07:07:13.217Z,97302.69
2022-10-17T07:09:39.505Z,97312.00
2022-10-17T07:12:08.214Z,97314.09
2022-10-17T07:14:35.649Z,97312.72
2022-10-17T07:17:02.232Z,97319.38
2022-10-17T07:19:28.713Z,97319.22
2022-10-17T07:21:55.422Z,97318.81
2022-10-17T07:24:21.923Z,97326.44
2022-10-17T07:26:48.219Z,97322.41
2022-10-17T07:29:14.594Z,97330.63
2022-10-17T07:31:40.882Z,97329.09
2022-10-17T07:34:07.194Z,97334.38
2022-10-17T07:36:33.654Z,97332.97
2022-10-17T07:38:59.966Z,97333.25
2022-10-17T07:41:26.468Z,97339.34
2022-10-17T07:43:52.765Z,97336.56
2022-10-17T07:46:19.070Z,97345.31
2022-10-17T07:48:45.374Z,97341.16
2022-10-17T07:51:11.693Z,97343.81
2022-10-17T07:53:39.215Z,97346.59
2022-10-17T07:56:11.428Z,97345.06
2022-10-17T07:58:38.131Z,97349.22
2022-10-17T08:01:09.520Z,97347.41
2022-10-17T08:03:38.620Z,97351.31
2022-10-17T08:06:05.181Z,97352.56
2022-10-17T08:08:31.694Z,97354.63
2022-10-17T08:11:04.040Z,97360.31
2022-10-17T08:13:30.411Z,97364.06
2022-10-17T08:16:07.374Z,97364.47
2022-10-17T08:18:34.992Z,97364.78
2022-10-17T08:21:02.840Z,97363.91
2022-10-17T08:23:29.726Z,97360.81
2022-10-17T08:25:59.821Z,97357.00
2022-10-17T08:28:26.266Z,97362.88
2022-10-17T08:30:52.610Z,97356.28
2022-10-17T08:33:19.096Z,97368.78
2022-10-17T08:35:45.385Z,97371.56
2022-10-17T08:38:13.332Z,97368.53
2022-10-17T08:40:42.914Z,97367.81
2022-10-17T08:43:18.435Z,97370.16
2022-10-17T08:46:03.250Z,97369.63
2022-10-17T08:48:33.057Z,97382.25
2022-10-17T08:51:06.281Z,97374.06
2022-10-17T08:53:43.499Z,97372.47
2022-10-17T08:56:30.317Z,97373.44
2022-10-17T08:59:05.894Z,97370.94
2022-10-17T09:01:40.157Z,97371.34
2022-10-17T09:04:35.006Z,97371.91
2022-10-17T09:07:13.224Z,97373.78
2022-10-17T09:10:15.445Z,97368.91
2022-10-17T09:13:14.925Z,97372.78
2022-10-17T09:16:20.506Z,97368.28
2022-10-17T09:18:59.189Z,97374.66
2022-10-17T09:21:42.005Z,97368.41
2022-10-17T09:24:16.273Z,97365.59
2022-10-17T09:26:45.528Z,97372.41
2022-10-17T09:29:22.888Z,97368.41
2022-10-17T09:34:31.240Z,97376.06
2022-10-17T09:36:59.554Z,97375.97
2022-10-17T09:39:29.089Z,97376.81
2022-10-17T09:41:58.148Z,97375.53
2022-10-17T09:44:38.705Z,97374.91
2022-10-17T09:47:29.948Z,97373.16
2022-10-17T09:49:56.798Z,97384.69
2022-10-17T09:52:34.880Z,97382.19
2022-10-17T09:55:05.379Z,97373.97
2022-10-17T10:01:21.053Z,97378.09
2022-10-17T10:04:30.250Z,97372.19
2022-10-17T10:07:12.089Z,97378.59
2022-10-17T10:09:40.174Z,97379.09
2022-10-17T10:12:18.638Z,97382.84
2022-10-17T10:14:47.290Z,97380.06
2022-10-17T10:17:34.000Z,97376.81
2022-10-17T10:20:01.349Z,97378.78
2022-10-17T10:22:28.393Z,97377.13
2022-10-17T10:25:15.341Z,97383.81
2022-10-17T10:27:44.497Z,97375.50
2022-10-17T10:30:27.685Z,97382.50
2022-10-17T10:32:56.674Z,97385.47
2022-10-17T10:35:30.499Z,97386.81
2022-10-17T10:37:58.670Z,97392.94
2022-10-17T10:40:29.557Z,97389.47
2022-10-17T10:43:04.020Z,97387.75
2022-10-17T10:45:52.812Z,97384.44
2022-10-17T10:48:25.579Z,97372.78
2022-10-17T10:50:54.564Z,97377.28
2022-10-17T10:53:35.157Z,97380.25
2022-10-17T10:56:09.772Z,97365.69
2022-10-17T10:58:54.300Z,97376.56
2022-10-17T11:01:37.051Z,97361.47
2022-10-17T11:04:21.693Z,97355.91
2022-10-17T11:06:52.456Z,97358.47
2022-10-17T11:10:11.823Z,97356.63
2022-10-17T11:15:28.112Z,97351.03
2022-10-17T11:18:01.049Z,97346.56
2022-10-17T11:20:46.728Z,97345.09
2022-10-17T11:23:21.428Z,97348.31
2022-10-17T11:25:52.738Z,97347.94
2022-10-17T11:28:21.242Z,97346.28
2022-10-17T11:31:04.530Z,97357.00
2022-10-17T11:33:45.403Z,97350.41
2022-10-17T11:36:14.140Z,97344.44
2022-10-17T11:39:06.752Z,97341.19
2022-10-17T11:41:47.767Z,97338.72
2022-10-17T11:44:27.371Z,97343.03
2022-10-17T11:46:59.105Z,97348.59
2022-10-17T11:49:34.035Z,97348.00
2022-10-17T11:52:51.359Z,97344.38
2022-10-17T11:55:23.688Z,97340.59
2022-10-17T11:58:12.754Z,97329.53
2022-10-17T12:00:58.326Z,97326.69
2022-10-17T12:03:42.936Z,97316.72
2022-10-17T12:06:37.494Z,97322.22
2022-10-17T12:09:15.946Z,97312.91
2022-10-17T12:11:50.734Z,97314.59
2022-10-17T12:14:38.625Z,97315.50
2022-10-17T12:17:21.004Z,97317.44
2022-10-17T12:19:47.405Z,97310.22
2022-10-17T12:22:28.536Z,97313.50
2022-10-17T12:25:03.417Z,97318.91
2022-10-17T12:27:32.918Z,97308.78
2022-10-17T12:30:02.063Z,97311.47
2022-10-17T12:32:36.834Z,97300.66
2022-10-17T12:35:21.152Z,97302.94
2022-10-17T12:37:50.456Z,97302.78
2022-10-17T12:40:35.267Z,97293.41
2022-10-17T12:43:14.032Z,97292.91
2022-10-17T12:45:51.508Z,97291.94
2022-10-17T12:48:36.227Z,97285.25
2022-10-17T12:54:08.156Z,97281.16
2022-10-17T12:56:41.704Z,97275.91
2022-10-17T12:59:23.335Z,97270.50
2022-10-17T13:01:54.540Z,97274.53
2022-10-17T13:04:21.786Z,97278.63
2022-10-17T13:06:55.553Z,97281.72
2022-10-17T13:09:31.507Z,97280.28
2022-10-17T13:12:02.358Z,97276.63
2022-10-17T13:14:30.125Z,97278.50
2022-10-17T13:17:03.253Z,97268.63
2022-10-17T13:19:42.016Z,97275.06
2022-10-17T13:22:20.855Z,97267.66
2022-10-17T13:24:48.401Z,97265.56
2022-10-17T13:27:32.420Z,97268.88
2022-10-17T13:30:01.475Z,97262.66
2022-10-17T13:32:37.798Z,97265.00
2022-10-17T13:35:07.240Z,97266.91
2022-10-17T13:37:34.489Z,97258.69
2022-10-17T13:40:11.371Z,97269.66
2022-10-17T13:42:47.888Z,97262.06
2022-10-17T13:45:30.282Z,97273.50
2022-10-17T13:47:59.858Z,97264.00
2022-10-17T13:50:44.229Z,97262.44
2022-10-17T13:53:30.522Z,97264.91
2022-10-17T13:56:27.760Z,97255.06
2022-10-17T13:58:53.703Z,97265.56
2022-10-17T14:01:21.494Z,97263.53
2022-10-17T14:03:51.783Z,97272.25
2022-10-17T14:06:24.787Z,97261.50
2022-10-17T14:09:07.460Z,97261.06
2022-10-17T14:11:37.314Z,97258.97
2022-10-17T14:14:06.199Z,97262.72
2022-10-17T14:16:41.426Z,97265.50
2022-10-17T14:19:36.055Z,97266.78
2022-10-17T14:22:26.440Z,97273.34
2022-10-17T14:24:53.504Z,97269.59
2022-10-17T14:27:31.463Z,97266.28
2022-10-17T14:30:03.538Z,97263.13
2022-10-17T14:35:18.750Z,97269.94
2022-10-17T14:37:48.659Z,97265.59
2022-10-17T14:40:21.062Z,97270.84
2022-10-17T14:42:48.276Z,97266.63
2022-10-17T14:45:27.579Z,97276.03
2022-10-17T14:47:56.793Z,97271.19
2022-10-17T14:50:25.780Z,97275.03
2022-10-17T14:53:04.898Z,97264.34
2022-10-17T14:55:33.970Z,97267.03
2022-10-17T14:58:00.495Z,97273.47
2022-10-17T15:00:27.863Z,97267.25
2022-10-17T15:02:55.626Z,97273.03
2022-10-17T15:05:23.171Z,97266.41
2022-10-17T15:07:49.601Z,97265.63
2022-10-17T15:10:30.552Z,97268.06
2022-10-17T15:12:59.115Z,97271.56
2022-10-17T15:15:31.705Z,97277.19
2022-10-17T15:17:58.947Z,97275.53
2022-10-17T15:20:27.784Z,97275.75
2022-10-17T15:22:54.765Z,97271.41
2022-10-17T15:25:21.692Z,97270.91
2022-10-17T15:27:48.100Z,97270.78
2022-10-17T15:30:26.728Z,97260.44
2022-10-17T15:32:53.141Z,97266.84
2022-10-17T15:35:20.292Z,97263.56
2022-10-17T15:37:46.770Z,97266.41
2022-10-17T15:40:22.702Z,97276.50
2022-10-17T15:42:49.540Z,97273.25
2022-10-17T15:45:18.380Z,97278.41
2022-10-17T15:47:55.685Z,97276.66
2022-10-17T15:50:22.439Z,97279.56
2022-10-17T15:52:52.680Z,97278.63
2022-10-17T15:55:19.646Z,97283.75
2022-10-17T15:57:48.076Z,97284.69
2022-10-17T16:00:21.012Z,97284.94
2022-10-17T16:02:49.126Z,97287.38
2022-10-17T16:05:25.908Z,97299.78
2022-10-17T16:07:53.900Z,97292.56
2022-10-17T16:10:21.339Z,97292.03
2022-10-17T16:12:49.720Z,97290.41
2022-10-17T16:15:24.882Z,97294.34
2022-10-17T16:17:52.723Z,97295.78
2022-10-17T16:20:19.784Z,97294.97
2022-10-17T16:22:46.753Z,97302.97
2022-10-17T16:25:25.206Z,97299.50
2022-10-17T16:27:53.625Z,97313.53
2022-10-17T16:32:55.165Z,97312.69
2022-10-17T16:35:31.710Z,97324.22
2022-10-17T16:38:01.394Z,97317.16
2022-10-17T16:40:27.733Z,97322.91
2022-10-17T16:42:54.035Z,97323.06
2022-10-17T16:45:22.801Z,97325.28
2022-10-17T16:47:50.366Z,97323.91
2022-10-17T16:50:16.786Z,97320.97
2022-10-17T16:52:43.103Z,97324.13
2022-10-17T16:55:09.971Z,97327.59
2022-10-17T16:57:36.536Z,97325.03
2022-10-17T17:00:04.796Z,97325.47
2022-10-17T17:02:31.476Z,97340.66
2022-10-17T17:04:58.127Z,97340.63
2022-10-17T17:07:24.617Z,97343.31
2022-10-17T17:09:51.664Z,97350.28
2022-10-17T17:12:18.019Z,97344.69
2022-10-17T17:14:44.410Z,97352.22
2022-10-17T17:17:19.436Z,97353.94
2022-10-17T17:19:56.985Z,97360.94
2022-10-17T17:22:23.374Z,97359.88
2022-10-17T17:27:16.173Z,97368.13
2022-10-17T17:29:42.561Z,97372.22
2022-10-17T17:32:09.013Z,97369.53
2022-10-17T17:34:36.818Z,97378.75
2022-10-17T17:37:03.400Z,97385.78
2022-10-17T17:39:29.717Z,97388.38
2022-10-17T17:41:56.075Z,97394.66
2022-10-17T17:44:22.603Z,97406.25
2022-10-17T17:46:49.292Z,97404.06
2022-10-17T17:49:15.699Z,97405.25
2022-10-17T17:51:45.954Z,97405.41
2022-10-17T17:54:12.723Z,97408.81
2022-10-17T17:56:39.432Z,97407.88
2022-10-17T17:59:05.778Z,97415.78
2022-10-17T18:01:37.772Z,97412.28
2022-10-17T18:04:06.776Z,97407.41
2022-10-17T18:06:33.189Z,97409.31
2022-10-17T18:08:59.687Z,97409.19
2022-10-17T18:11:27.233Z,97406.50
2022-10-17T18:13:55.721Z,97404.66
2022-10-17T18:16:22.468Z,97414.03
2022-10-17T18:18:49.029Z,97418.03
2022-10-17T18:21:15.630Z,97416.88
2022-10-17T18:23:44.938Z,97419.97
2022-10-17T18:26:12.087Z,97422.84
2022-10-17T18:31:19.038Z,97417.13
2022-10-17T18:33:45.599Z,97428.38
2022-10-17T18:36:14.653Z,97437.63
2022-10-17T18:38:41.303Z,97443.88
2022-10-17T18:41:13.049Z,97439.38
2022-10-17T18:43:41.286Z,97437.91
2022-10-17T18:46:12.446Z,97443.22
2022-10-17T18:48:42.952Z,97438.59
2022-10-17T18:51:09.614Z,97444.34
2022-10-17T18:53:39.802Z,97449.88
2022-10-17T18:56:06.562Z,97443.44
2022-10-17T18:58:32.974Z,97446.75
2022-10-17T19:01:04.397Z,97453.63
2022-10-17T19:03:31.896Z,97440.47
2022-10-17T19:06:08.051Z,97439.13
2022-10-17T19:08:35.761Z,97447.41
2022-10-17T19:11:11.094Z,97443.25
2022-10-17T19:13:37.973Z,97443.63
2022-10-17T19:16:06.702Z,97442.13
2022-10-17T19:18:33.919Z,97435.16
2022-10-17T19:21:09.625Z,97436.00
2022-10-17T19:23:37.049Z,97439.84
2022-10-17T19:26:11.486Z,97442.50
2022-10-17T19:28:41.961Z,97446.16
2022-10-17T19:31:08.805Z,97438.56
2022-10-17T19:33:36.005Z,97437.69
2022-10-17T19:36:05.581Z,97435.03
2022-10-17T19:38:32.359Z,97434.38
2022-10-17T19:43:27.104Z,97438.22
2022-10-17T19:45:58.909Z,97439.59
2022-10-17T19:48:26.393Z,97445.59
2022-10-17T19:50:53.571Z,97451.59
2022-10-17T19:53:22.935Z,97446.94
2022-10-17T19:55:49.795Z,97456.94
2022-10-17T19:58:16.231Z,97455.63
2022-10-17T20:00:47.268Z,97461.28
2022-10-17T20:03:13.617Z,97466.06
2022-10-17T20:05:39.943Z,97459.25
2022-10-17T20:08:06.376Z,97466.56
2022-10-17T20:10:33.623Z,97464.09
2022-10-17T20:13:00.047Z,97468.91
2022-10-17T20:15:26.494Z,97462.56
2022-10-17T20:17:52.829Z,97466.56
2022-10-17T20:20:19.686Z,97461.72
2022-10-17T20:22:46.616Z,97466.22
2022-10-17T20:25:13.220Z,97473.19
2022-10-17T20:27:39.657Z,97475.53
2022-10-17T20:30:06.723Z,97475.19
2022-10-17T20:32:39.486Z,97481.84
2022-10-17T20:35:07.580Z,97477.53
2022-10-17T20:37:38.551Z,97482.50
2022-10-17T20:40:33.751Z,97481.31
2022-10-17T20:42:54.901Z,97475.16
2022-10-17T20:45:37.386Z,97484.31
2022-10-17T20:48:15.714Z,97485.78
2022-10-17T20:50:43.621Z,97478.81
2022-10-17T20:53:35.356Z,97483.94
2022-10-17T20:56:17.034Z,97489.59
2022-10-17T20:58:43.378Z,97497.63
2022-10-17T21:01:10.699Z,97493.38
2022-10-17T21:03:41.105Z,97485.75
2022-10-17T21:06:11.138Z,97484.41
2022-10-17T21:08:37.599Z,97476.38
2022-10-17T21:11:21.907Z,97474.06
2022-10-17T21:13:54.947Z,97475.06
2022-10-17T21:16:21.735Z,97470.75
2022-10-17T21:18:49.305Z,97475.22
2022-10-17T21:21:26.592Z,97477.69
2022-10-17T21:23:58.582Z,97472.34
2022-10-17T21:26:24.974Z,97475.97
2022-10-17T21:28:51.567Z,97481.66
2022-10-17T21:31:19.470Z,97484.97
2022-10-17T21:33:48.842Z,97489.63
2022-10-17T21:36:18.543Z,97487.41
2022-10-17T21:38:47.164Z,97482.41
2022-10-17T21:41:16.027Z,97483.34
2022-10-17T21:43:43.014Z,97485.47
2022-10-17T21:46:15.404Z,97492.72
2022-10-17T21:48:42.305Z,97490.28
2022-10-17T21:51:14.149Z,97497.03
2022-10-17T21:53:41.075Z,97489.75
2022-10-17T21:56:11.077Z,97488.75
2022-10-17T21:58:37.833Z,97497.34
2022-10-17T22:01:10.540Z,97497.19
2022-10-17T22:03:42.652Z,97503.03
2022-10-17T22:09:00.428Z,97496.53
2022-10-17T22:11:30.276Z,97495.69
2022-10-17T22:13:59.276Z,97492.00
2022-10-17T22:16:26.456Z,97504.91
2022-10-17T22:18:56.224Z,97503.22
2022-10-17T22:21:23.122Z,97502.38
2022-10-17T22:23:59.084Z,97503.59
2022-10-17T22:26:27.074Z,97506.81
2022-10-17T22:28:53.718Z,97497.16
2022-10-17T22:31:20.126Z,97492.56
2022-10-17T22:33:46.994Z,97492.41
2022-10-17T22:36:13.884Z,97487.88
2022-10-17T22:38:40.446Z,97484.63
2022-10-17T22:41:07.140Z,97482.00
2022-10-17T22:43:33.510Z,97485.69
2022-10-17T22:46:03.032Z,97483.19
2022-10-17T22:48:30.115Z,97482.72
2022-10-17T22:50:58.684Z,97486.38
2022-10-17T22:53:26.675Z,97495.00
2022-10-17T22:56:00.199Z,97481.59
2022-10-17T22:58:27.979Z,97475.81
2022-10-17T23:00:55.203Z,97478.16
2022-10-17T23:03:23.292Z,97485.69
2022-10-17T23:05:50.139Z,97482.97
2022-10-17T23:08:17.943Z,97477.88
2022-10-17T23:10:45.227Z,97483.03
2022-10-17T23:13:12.175Z,97486.47
2022-10-17T23:15:38.537Z,97486.56
2022-10-17T23:18:04.998Z,97481.25
2022-10-17T23:20:31.733Z,97475.63
2022-10-17T23:22:58.979Z,97482.63
2022-10-17T23:25:25.920Z,97478.34
2022-10-17T23:27:52.286Z,97489.28
2022-10-17T23:30:18.754Z,97485.28
2022-10-17T23:32:45.084Z,97491.25
2022-10-17T23:35:11.689Z,97497.47
2022-10-17T23:37:38.566Z,97498.38
2022-10-17T23:40:06.188Z,97494.16
2022-10-17T23:42:32.514Z,97494.97
2022-10-17T23:44:59.047Z,97495.56
2022-10-17T23:47:25.385Z,97490.88
2022-10-17T23:49:51.884Z,97487.56
2022-10-17T23:52:18.310Z,97482.75
2022-10-17T23:54:44.665Z,97486.25
2022-10-17T23:57:10.998Z,97492.88
2022-10-17T23:59:37.343Z,97482.41
